Terminal Aerodrome Forecast
Issued by NWS Hastings, NE

Home | Current Version | Previous Version | Text Only | Print | Product List | Glossary On
Versions: 1 2 3 4 5 6 7 8 9 10 11 12 13 14 15 16 17 18 19 20 21 22 23 24 25 26 27 28 29
000
FTUS43 KGID 291720
TAFGRI
TAF
KGRI 291720Z 2918/3018 33013KT P6SM SCT025 BKN150
     FM292000 35016G24KT P6SM VCSH SCT020 OVC035
     FM300200 35015KT P6SM SCT012 OVC025
     FM301200 35012KT P6SM FEW100=

USA.gov is the U.S. government's official web portal to all federal, state and local government web resources and services.